Terminal Aerodrome Forecast
Issued by NWS

Home | Current Version | Previous Version | Text Only | Print | Product List | Glossary On
Versions: 1 2 3 4 5 6 7 8 9 10 11 12 13 14 15 16 17 18 19 20 21 22 23 24 25 26 27 28 29 30 31 32 33 34 35 36 37 38 39 40 41 42 43 44 45 46 47 48 49 50
050
FTUS42 KRAH 051120
TAFINT
TAF
KINT 051120Z 0512/0612 33006KT P6SM -RA FEW035 BKN045 OVC060
     FM051400 33012KT 5SM -SHRA BR SCT020 OVC035
     FM052300 32010KT 6SM BR VCSH BKN009 OVC030=

USA.gov is the U.S. government's official web portal to all federal, state and local government web resources and services.